Terminal Aerodrome Forecast
Issued by NWS

Home | Current Version | Previous Version | Text Only | Print | Product List | Glossary On
Versions: 1 2 3 4 5 6 7 8 9 10 11 12 13 14 15 16 17 18 19 20 21
000
FTUS42 KTAE 251700
TAFDHN
TAF
KDHN 251720Z 2518/2618 01007KT P6SM VCSH BKN040 OVC100
     FM252000 01007KT 6SM -RA OVC040
     FM260200 35009KT P6SM VCSH OVC050
     FM260600 34007KT P6SM SCT050 BKN150=

USA.gov is the U.S. government's official web portal to all federal, state and local government web resources and services.